Falls International Airport International Falls US
ICAO: KINL
IATA: INL
Category: Medium
Scheduled Services: Yes

Elevation: 1185 ft
TransAlt. 18000 ft.

Airport Communications:
ASOS:120
MINNEAPOLIS CNTR:120.9
PRINCETON RDO:123.6
CTAF/UNICOM:122.8

KINL Zoom In..

Runways:

(A) RW 04 length 2999 ft width 75 ft
---- / hdg 39

(B) RW 13 length 7400 ft width 150 ft
ILS 109.10 / hdg 133

(C) RW 22 length 2999 ft width 75 ft
---- / hdg 219

(D) RW 31 length 7400 ft width 150 ft
ILS 111.95 / hdg 313

Location; KINL
Day. 17 / Time. 06.55 Zulu
* Altimeter: 30.12
* Temperature: 11° c. 51.8°f.
* Wind from: 000° Speed 00 kn.
Dewpoint: 11° c.
Visibility: 10 Statute Miles.
Clouds: Clear (automated report).

KINL 170655Z AUTO 00000KT 10SM CLR 11/11 A3012 RMK AO2 SLP201 T01060106 $


Wind - Calm.

 
 
jpsmedia.com for Web Design worldairports.se 2018   terms of use